• °C
  • Pobieranie danych...
wx


SEKCJA WYDRUKÓW, pokaż »

METAR EPBY 271430Z VRB01KT 6000 FEW005 OVC010 02/01 Q0995=

METAR EPGD 271430Z 28004KT 6000 BKN006 02/01 Q0995 =

METAR EPKK 271430Z VRB01KT 9999 BKN050 04/M02 Q0996 =

METAR EPKT 271430Z VRB02KT 8000 BKN042 02/M01 Q0996 =

METAR EPLB 271430Z 26008KT 9999 SCT017 02/01 Q0997 =

METAR EPLL 271430Z 18003KT 120V230 8000 OVC005 00/M01 Q0996 =

METAR EPML 271430Z AUTO 15003KT 9999 BKN028/// BKN072/// 05/01 Q0997=

METAR EPMO 271430Z 24013KT 8000 BKN010 01/01 Q0996 =

METAR EPPO 271430Z 13008KT 3400 BR OVC004 01/M00 Q0995 =

METAR EPRA 271430Z NIL=

METAR EPRZ 271430Z 19008KT 9999 OVC013 04/01 Q0997 =

METAR EPSC 271430Z 10004KT 070V130 CAVOK 03/00 Q0994 =

METAR EPSY 271430Z 26004KT 9999 FEW009 BKN012 01/01 Q0994=

METAR EPWA 271430Z 22005KT 190V250 9999 SCT008 BKN012 02/01 Q0996
TEMPO BKN008=

METAR EPWR 271430Z 14010KT CAVOK 02/M00 Q0995 =

METAR EPZG 271430Z 09007KT 4600 BR NSC 02/02 Q0994 =
 METAR EPBY
Lokalizacja:EPBY Bydgoszcz
Czas:14:30 UTC
Średni kierunek wiatru:zmienny
Średnia prędkość wiatru:1 węzłów
Widzialność:6 kilometrów
Pierwsza warstwa chmur:1/8 do 2/8, wysokość podstawy 500 FT
Druga warstwa chmur:8/8, wysokość podstawy 1000 FT
Temperatura powietrza:2 °C
Temperatura punktu rosy:1 °C
Ciśnienie QNH:995 hPa



Serwisy IMGW-PIB